Time;durP1;ratioP1;P1;durP2;ratioP2;P2;SDS_P1;SDS_P2;PMS_P1;PMS_P2;Temp;Humidity;BMP_temperature;BMP_pressure;BME280_temperature;BME280_humidity;BME280_pressure;Samples;Min_cycle;Max_cycle;Signal;HPM_P1;HPM_P2
2022/02/10 00:07:03;;;;;;;;;;;;;;;15.92;38.42;101130.59;3950968;32;15724559;-71
2022/02/10 00:17:58;;;;;;;;;;;;;;;16.07;38.27;101131.63;3951325;32;15725275;-72
2022/02/10 00:20:32;;;;;;;;;;;;;;;16.07;38.27;101131.63;4436458;32;20025;-70
2022/02/10 00:23:13;;;;;;;;;;;;;;;15.57;38.92;101121.44;4432663;32;19958;-72
2022/02/10 00:34:26;;;;;;;;;;;;;;;15.60;38.99;101114.03;4434535;32;19997;-71
2022/02/10 00:36:38;;;;;;;;;;;;;;;15.61;39.20;101104.28;4432625;32;19957;-72
2022/02/10 00:41:49;;;;;;;;;;;;;;;15.42;39.38;101109.06;4430946;32;19984;-72
2022/02/10 00:44:15;;;;;;;;;;;;;;;15.57;39.29;101104.44;4434236;32;20053;-72
2022/02/10 00:46:40;;;;;;;;;;;;;;;15.70;38.98;101107.97;4434267;32;19957;-72
2022/02/10 00:49:08;;;;;;;;;;;;;;;15.63;39.09;101099.72;4435606;32;20004;-72
2022/02/10 00:51:33;;;;;;;;;;;;;;;15.70;39.00;101101.47;4432832;32;19989;-72
2022/02/10 00:53:59;;;;;;;;;;;;;;;15.54;39.26;101091.16;4433873;32;20050;-72
2022/02/10 00:56:24;;;;;;;;;;;;;;;15.70;39.07;101090.13;4432734;32;20383;-72
2022/02/10 00:58:59;;;;;;;;;;;;;;;15.64;39.13;101092.78;4433492;32;20336;-71
2022/02/10 01:29:40;;;;;;;;;;;;;;;15.31;39.05;101076.66;4430997;32;19997;-72
2022/02/10 01:31:35;;;;;;;;;;;;;;;15.11;39.43;101070.53;4429630;32;21014;-72
2022/02/10 01:34:01;;;;;;;;;;;;;;;15.10;39.37;101074.63;4429051;32;19960;-71
2022/02/10 01:36:27;;;;;;;;;;;;;;;15.11;39.21;101070.53;4430140;32;19953;-72
2022/02/10 01:38:53;;;;;;;;;;;;;;;15.38;38.97;101074.37;4427088;32;19953;-72
2022/02/10 01:58:05;;;;;;;;;;;;;;;15.19;38.60;101089.62;4430580;32;20577;-71
2022/02/10 02:03:21;;;;;;;;;;;;;;;15.26;38.54;101095.06;4426047;32;21086;-71
2022/02/10 02:05:52;;;;;;;;;;;;;;;15.17;38.55;101100.66;4427608;32;20487;-71
2022/02/10 02:08:23;;;;;;;;;;;;;;;15.39;37.60;101106.34;4428320;32;19961;-72
2022/02/10 02:10:49;;;;;;;;;;;;;;;15.53;37.81;101100.16;4426408;32;19965;-72
2022/02/10 02:13:14;;;;;;;;;;;;;;;15.35;37.53;101083.78;4430680;32;20383;-71
2022/02/10 02:15:40;;;;;;;;;;;;;;;15.32;37.42;101095.25;4430566;32;20026;-71
2022/02/10 02:18:06;;;;;;;;;;;;;;;15.18;37.84;101081.59;4428044;32;20012;-71
2022/02/10 02:20:31;;;;;;;;;;;;;;;15.17;38.03;101088.53;4427947;32;20052;-71
2022/02/10 02:22:57;;;;;;;;;;;;;;;15.23;38.07;101098.03;4426649;32;19993;-71
2022/02/10 02:25:23;;;;;;;;;;;;;;;14.92;38.35;101097.16;4433891;32;19958;-71
2022/02/10 02:27:51;;;;;;;;;;;;;;;15.16;38.03;101098.28;4428880;32;19967;-71
2022/02/10 02:30:20;;;;;;;;;;;;;;;15.04;38.01;101099.91;4430921;32;19961;-71
2022/02/10 02:33:06;;;;;;;;;;;;;;;15.22;38.01;101100.06;4428203;32;19997;-71
2022/02/10 02:35:49;;;;;;;;;;;;;;;15.38;37.74;101097.06;4428819;32;20458;-71
2022/02/10 02:38:38;;;;;;;;;;;;;;;15.46;37.77;101091.88;4431057;32;19968;-72
2022/02/10 03:08:37;;;;;;;;;;;;;;;14.97;37.97;101088.06;3951266;32;15724438;-71
2022/02/10 03:11:08;;;;;;;;;;;;;;;14.94;37.68;101089.75;4429216;32;19997;-71
2022/02/10 03:13:39;;;;;;;;;;;;;;;14.72;38.34;101086.12;4430131;32;20008;-71
2022/02/10 04:08:26;;;;;;;;;;;;;;;14.38;39.81;101056.97;3950213;32;15723404;-71
2022/02/10 04:11:22;;;;;;;;;;;;;;;14.38;39.81;101056.97;4426280;32;19957;-71
2022/02/10 04:13:54;;;;;;;;;;;;;;;14.13;40.23;101068.34;4432165;32;20439;-71
2022/02/10 04:16:25;;;;;;;;;;;;;;;13.72;41.02;101064.41;4429005;32;19957;-71
2022/02/10 04:21:54;;;;;;;;;;;;;;;13.62;41.75;101081.69;3947154;32;15846293;-70
2022/02/10 04:38:22;;;;;;;;;;;;;;;13.64;41.05;101050.94;4433216;32;19964;-71
2022/02/10 04:43:39;;;;;;;;;;;;;;;13.77;40.41;101060.22;4423108;32;20445;-72
2022/02/10 04:59:37;;;;;;;;;;;;;;;13.89;39.93;101060.22;3953503;32;15722580;-72
2022/02/10 05:34:47;;;;;;;;;;;;;;;13.53;39.98;101062.56;4435327;32;19965;-71
2022/02/10 05:37:15;;;;;;;;;;;;;;;13.56;39.55;101050.37;4434478;32;20013;-71
2022/02/10 05:39:45;;;;;;;;;;;;;;;13.53;39.93;101051.25;4434013;32;20050;-71
2022/02/10 05:58:25;;;;;;;;;;;;;;;13.33;39.90;101049.88;4429529;32;21285;-71
2022/02/10 06:41:11;;;;;;;;;;;;;;;13.36;39.33;101054.66;4426385;32;20423;-71
2022/02/10 06:50:51;;;;;;;;;;;;;;;12.76;40.32;101045.06;4427895;32;19993;-71
2022/02/10 07:48:02;;;;;;;;;;;;;;;13.01;38.55;101083.97;3948004;32;15723366;-72
2022/02/10 08:26:24;;;;;;;;;;;;;;;12.67;38.73;101075.19;4423434;32;19992;-73
2022/02/10 08:26:35;;;;;;;;;;;;;;;12.82;38.56;101071.53;4423861;32;20028;-73
2022/02/10 08:26:47;;;;;;;;;;;;;;;12.55;38.93;101076.72;4427665;32;20354;-74
2022/02/10 08:56:04;;;;;;;;;;;;;;;14.42;36.10;101112.81;3947397;32;15723221;-72
2022/02/10 09:15:20;;;;;;;;;;;;;;;14.46;35.82;101127.09;4426311;32;19961;-71
2022/02/10 09:18:19;;;;;;;;;;;;;;;14.24;36.37;101105.59;4423593;32;20001;-71
2022/02/10 10:01:51;;;;;;;;;;;;;;;15.37;34.97;101091.84;3947500;32;15726668;-71
2022/02/10 10:04:22;;;;;;;;;;;;;;;15.37;34.97;101091.84;4409579;32;20010;-71
2022/02/10 10:15:12;;;;;;;;;;;;;;;14.69;36.45;101095.53;3947782;32;15722418;-72
2022/02/10 10:20:28;;;;;;;;;;;;;;;13.77;41.79;101100.59;3949330;32;15721431;-71
2022/02/10 10:23:25;;;;;;;;;;;;;;;13.77;41.79;101100.59;4435334;32;19996;-70
2022/02/10 10:45:45;;;;;;;;;;;;;;;14.26;37.35;101074.81;3944283;32;15724436;-69
2022/02/10 10:50:27;;;;;;;;;;;;;;;13.69;37.76;101098.47;4424788;32;20061;-70
2022/02/10 10:53:11;;;;;;;;;;;;;;;13.89;37.81;101090.53;4421210;32;20344;-70
2022/02/10 10:55:48;;;;;;;;;;;;;;;14.48;36.98;101099.09;4422335;32;19957;-71
2022/02/10 10:58:19;;;;;;;;;;;;;;;13.68;38.43;101097.66;4422784;32;20175;-72
2022/02/10 11:01:11;;;;;;;;;;;;;;;13.62;38.92;101090.97;4423958;32;20347;-71
2022/02/10 11:38:08;;;;;;;;;;;;;;;15.17;35.16;101091.34;4417813;32;20053;-71
2022/02/10 11:40:53;;;;;;;;;;;;;;;16.02;34.44;101107.47;4415326;32;20042;-70
2022/02/10 11:43:34;;;;;;;;;;;;;;;16.33;33.65;101120.84;4419967;32;20567;-71
2022/02/10 12:34:39;;;;;;;;;;;;;;;18.22;28.66;101089.38;3946028;32;15723509;-71
2022/02/10 12:36:59;;;;;;;;;;;;;;;18.20;28.60;101080.53;4423043;32;20065;-71
2022/02/10 12:40:09;;;;;;;;;;;;;;;18.57;27.92;101087.63;4413879;32;20016;-71
2022/02/10 13:24:32;;;;;;;;;;;;;;;17.14;29.71;101073.41;4419791;32;19969;-72
2022/02/10 13:30:33;;;;;;;;;;;;;;;19.32;27.00;101090.97;3947896;32;15722714;-71
2022/02/10 14:11:13;;;;;;;;;;;;;;;21.79;22.43;101038.50;4423500;32;20610;-72
2022/02/10 14:16:42;;;;;;;;;;;;;;;22.45;22.02;101029.50;3943926;32;15724544;-73
2022/02/10 14:18:55;;;;;;;;;;;;;;;22.45;22.02;101029.50;4416184;32;20769;-70
2022/02/10 14:21:30;;;;;;;;;;;;;;;21.86;22.79;101017.16;4417450;32;19972;-71
2022/02/10 14:26:43;;;;;;;;;;;;;;;23.12;21.43;101026.41;3941255;32;15721361;-71
2022/02/10 14:29:08;;;;;;;;;;;;;;;23.12;21.43;101026.41;4416723;32;19965;-70
2022/02/10 14:31:34;;;;;;;;;;;;;;;22.30;22.08;101026.06;4405815;32;19985;-72
2022/02/10 14:34:01;;;;;;;;;;;;;;;22.43;22.17;101017.78;4415018;32;20378;-72
2022/02/10 14:36:32;;;;;;;;;;;;;;;21.84;22.60;101016.91;4413033;32;19989;-72
2022/02/10 14:39:14;;;;;;;;;;;;;;;21.19;23.20;101018.62;4414230;32;19968;-73
2022/02/10 15:55:55;;;;;;;;;;;;;;;20.58;25.21;101094.34;4416972;32;20021;-72
2022/02/10 16:17:42;;;;;;;;;;;;;;;15.58;32.94;101099.53;3947868;32;15722560;-72
2022/02/10 16:20:09;;;;;;;;;;;;;;;14.84;34.00;101115.66;4422792;32;20001;-72
2022/02/10 16:22:38;;;;;;;;;;;;;;;14.59;34.51;101119.34;4423407;32;20001;-72
2022/02/10 16:25:07;;;;;;;;;;;;;;;15.07;33.81;101110.34;4421855;32;20296;-72
2022/02/10 16:27:35;;;;;;;;;;;;;;;14.85;34.26;101115.19;4427590;32;19985;-72
2022/02/10 16:30:11;;;;;;;;;;;;;;;14.98;34.05;101117.97;4421548;32;19995;-72
2022/02/10 16:32:39;;;;;;;;;;;;;;;14.88;34.18;101119.16;4408604;32;20054;-73
2022/02/10 16:35:05;;;;;;;;;;;;;;;15.15;34.07;101114.50;4422018;32;19950;-72
2022/02/10 16:37:31;;;;;;;;;;;;;;;15.11;34.20;101124.38;4422517;32;19969;-72
2022/02/10 16:39:56;;;;;;;;;;;;;;;14.81;35.08;101116.56;4423031;32;20057;-72
2022/02/10 16:42:22;;;;;;;;;;;;;;;13.91;37.26;101144.66;4423006;32;20000;-72
2022/02/10 16:44:48;;;;;;;;;;;;;;;13.52;38.49;101120.38;4421134;32;20066;-71
2022/02/10 16:47:14;;;;;;;;;;;;;;;13.63;38.53;101120.84;4421511;32;20005;-71
2022/02/10 16:49:46;;;;;;;;;;;;;;;13.79;38.88;101122.78;4426456;32;19989;-71
2022/02/10 16:52:18;;;;;;;;;;;;;;;13.66;38.92;101114.28;4422843;32;20009;-71
2022/02/10 16:54:46;;;;;;;;;;;;;;;14.01;38.95;101109.56;4425261;32;20015;-72
2022/02/10 17:03:10;;;;;;;;;;;;;;;14.10;39.45;101101.16;3950021;32;15724562;-72
2022/02/10 17:14:09;;;;;;;;;;;;;;;14.35;39.27;101140.81;3953535;32;15724492;-72
2022/02/10 17:19:16;;;;;;;;;;;;;;;14.00;40.91;101158.91;3950105;32;15723569;-72
2022/02/10 17:35:23;;;;;;;;;;;;;;;13.95;42.50;101177.25;4429938;32;20023;-71
2022/02/10 17:54:09;;;;;;;;;;;;;;;14.27;42.48;101179.09;3951603;32;15723049;-72
2022/02/10 17:56:35;;;;;;;;;;;;;;;14.27;42.48;101179.09;4430377;32;20308;-70
2022/02/10 17:59:02;;;;;;;;;;;;;;;13.40;43.92;101162.75;4428480;32;19987;-71
2022/02/10 18:01:28;;;;;;;;;;;;;;;13.19;44.45;101157.72;4426247;32;19953;-71
2022/02/10 18:03:55;;;;;;;;;;;;;;;13.16;44.48;101165.03;4429908;32;19965;-71
2022/02/10 18:06:23;;;;;;;;;;;;;;;12.96;44.59;101167.19;4430813;32;20002;-70
2022/02/10 18:09:23;;;;;;;;;;;;;;;13.02;44.16;101164.66;4425920;32;20265;-71
2022/02/10 18:17:09;;;;;;;;;;;;;;;14.58;41.77;101173.63;3951603;32;15724550;-71
2022/02/10 18:19:42;;;;;;;;;;;;;;;14.58;41.77;101173.63;4421962;32;20292;-72
2022/02/10 18:24:56;;;;;;;;;;;;;;;14.77;40.76;101161.22;3952521;32;15726542;-71
2022/02/10 18:30:14;;;;;;;;;;;;;;;14.62;40.87;101181.19;3951461;32;15723647;-71
2022/02/10 19:06:28;;;;;;;;;;;;;;;13.32;43.39;101195.31;4429554;32;19968;-71
2022/02/10 19:09:06;;;;;;;;;;;;;;;12.68;44.68;101199.00;4426082;32;19991;-71
2022/02/10 19:11:15;;;;;;;;;;;;;;;13.00;43.76;101199.00;4426166;32;19988;-71
2022/02/10 19:13:41;;;;;;;;;;;;;;;12.73;44.72;101211.81;4428397;32;20008;-71
2022/02/10 19:16:07;;;;;;;;;;;;;;;12.87;44.32;101236.84;4430225;32;20327;-71
2022/02/10 19:18:32;;;;;;;;;;;;;;;13.30;43.73;101254.31;4425397;32;20350;-71
2022/02/10 19:20:58;;;;;;;;;;;;;;;13.41;43.42;101255.59;4427740;32;19953;-71
2022/02/10 19:23:25;;;;;;;;;;;;;;;12.97;44.26;101270.47;4426182;32;19958;-71
2022/02/10 19:25:50;;;;;;;;;;;;;;;13.72;43.00;101279.38;4426903;32;19972;-71
2022/02/10 19:28:17;;;;;;;;;;;;;;;13.61;43.02;101289.41;4425935;32;19958;-71
2022/02/10 19:30:44;;;;;;;;;;;;;;;13.43;43.58;101287.06;4427378;32;20012;-71
2022/02/10 19:33:13;;;;;;;;;;;;;;;13.41;43.41;101292.34;4428240;32;20026;-70
2022/02/10 19:35:44;;;;;;;;;;;;;;;13.29;43.67;101295.91;4428765;32;20221;-70
2022/02/10 19:38:15;;;;;;;;;;;;;;;13.09;44.29;101306.53;4431663;32;20603;-70
2022/02/10 19:40:40;;;;;;;;;;;;;;;13.17;43.97;101302.31;4425550;32;20069;-70
2022/02/10 19:43:06;;;;;;;;;;;;;;;13.23;44.04;101320.28;4423976;32;20359;-70
2022/02/10 19:45:33;;;;;;;;;;;;;;;12.69;45.24;101319.19;4429050;32;19996;-70
2022/02/10 19:47:58;;;;;;;;;;;;;;;12.52;45.44;101333.72;4431506;32;19996;-70
2022/02/10 19:50:27;;;;;;;;;;;;;;;12.93;44.64;101334.75;4425138;32;20035;-70
2022/02/10 19:52:58;;;;;;;;;;;;;;;13.08;44.25;101323.94;4426480;32;20357;-70
2022/02/10 19:55:24;;;;;;;;;;;;;;;13.05;44.38;101328.44;4427367;32;20012;-70
2022/02/10 19:57:53;;;;;;;;;;;;;;;12.57;45.51;101345.28;4428082;32;20015;-70
2022/02/10 20:00:22;;;;;;;;;;;;;;;13.07;44.22;101353.44;4429988;32;20349;-70
2022/02/10 20:02:49;;;;;;;;;;;;;;;13.44;43.63;101355.72;4425224;32;19980;-70
2022/02/10 20:05:18;;;;;;;;;;;;;;;13.22;43.80;101363.13;4427435;32;20323;-70
2022/02/10 20:07:48;;;;;;;;;;;;;;;13.50;43.24;101374.50;4432958;32;19963;-70
2022/02/10 20:10:14;;;;;;;;;;;;;;;13.72;42.55;101388.91;4413085;32;19989;-71
2022/02/10 20:12:40;;;;;;;;;;;;;;;13.69;42.69;101379.25;4422013;32;19985;-70
2022/02/10 20:15:07;;;;;;;;;;;;;;;13.82;42.14;101368.81;4414454;32;19981;-70
2022/02/10 20:17:33;;;;;;;;;;;;;;;13.41;42.59;101363.03;4421391;32;20292;-70
2022/02/10 20:19:58;;;;;;;;;;;;;;;13.42;42.77;101372.31;4416458;32;21186;-70
2022/02/10 20:22:24;;;;;;;;;;;;;;;13.34;43.04;101371.69;4415498;32;20358;-70
2022/02/10 20:24:51;;;;;;;;;;;;;;;13.30;42.73;101365.34;4416340;32;20005;-70
2022/02/10 20:27:16;;;;;;;;;;;;;;;13.25;42.89;101385.66;4420010;32;19953;-70
2022/02/10 20:29:42;;;;;;;;;;;;;;;13.31;42.89;101380.25;4416399;32;19975;-70
2022/02/10 20:32:07;;;;;;;;;;;;;;;12.98;43.87;101390.72;4419412;32;20397;-70
2022/02/10 20:34:33;;;;;;;;;;;;;;;12.87;43.90;101390.19;4417046;32;20348;-70
2022/02/10 20:37:01;;;;;;;;;;;;;;;13.13;43.45;101392.00;4418152;32;20024;-70
2022/02/10 20:39:28;;;;;;;;;;;;;;;13.09;43.46;101401.81;4405247;32;19977;-70
2022/02/10 20:42:02;;;;;;;;;;;;;;;12.85;43.70;101398.28;4416294;32;19993;-70
2022/02/10 20:44:28;;;;;;;;;;;;;;;12.78;44.12;101398.47;4417300;32;19967;-70
2022/02/10 20:46:54;;;;;;;;;;;;;;;12.59;44.51;101399.31;4419561;32;19972;-70
2022/02/10 20:49:26;;;;;;;;;;;;;;;12.86;43.92;101388.56;4415322;32;19993;-70
2022/02/10 20:51:53;;;;;;;;;;;;;;;12.70;44.15;101399.84;4417045;32;19953;-70
2022/02/10 20:54:19;;;;;;;;;;;;;;;12.80;44.13;101403.69;4417869;32;19993;-70
2022/02/10 20:56:45;;;;;;;;;;;;;;;12.54;44.79;101411.09;4419086;32;19993;-70
2022/02/10 20:59:24;;;;;;;;;;;;;;;12.78;44.27;101417.44;4420378;32;19985;-70
2022/02/10 21:02:09;;;;;;;;;;;;;;;13.11;43.51;101411.47;4418035;32;19965;-70
2022/02/10 21:04:39;;;;;;;;;;;;;;;12.63;44.67;101411.31;4417503;32;20041;-70
2022/02/10 21:12:22;;;;;;;;;;;;;;;13.31;43.59;101431.94;3950456;32;15722347;-70
2022/02/10 21:14:48;;;;;;;;;;;;;;;13.31;43.59;101431.94;4433063;32;20027;-70
2022/02/10 21:17:20;;;;;;;;;;;;;;;13.22;43.25;101423.28;4435245;32;19957;-70
2022/02/10 21:19:45;;;;;;;;;;;;;;;12.91;43.78;101416.31;4432797;32;20489;-70
2022/02/10 21:22:16;;;;;;;;;;;;;;;13.05;43.52;101435.00;4428944;32;20000;-70
2022/02/10 21:24:50;;;;;;;;;;;;;;;12.84;43.89;101433.44;4431970;32;20000;-70
2022/02/10 21:27:49;;;;;;;;;;;;;;;13.25;42.92;101442.19;4433174;32;20300;-70
2022/02/10 21:30:04;;;;;;;;;;;;;;;13.47;42.20;101434.78;4432305;32;19949;-70
2022/02/10 21:32:33;;;;;;;;;;;;;;;13.28;43.10;101438.50;4429144;32;20011;-70
2022/02/10 21:35:20;;;;;;;;;;;;;;;13.29;42.97;101440.06;4433647;32;20027;-70
2022/02/10 21:37:52;;;;;;;;;;;;;;;13.01;43.82;101435.09;4434668;32;20425;-70
2022/02/10 21:54:43;;;;;;;;;;;;;;;13.52;42.92;101473.84;4459486;32;20015;-71
2022/02/10 21:57:05;;;;;;;;;;;;;;;13.45;42.91;101484.53;4454670;32;20001;-71
2022/02/10 22:00:28;;;;;;;;;;;;;;;13.30;43.16;101489.72;4454698;32;20129;-71
2022/02/10 22:19:35;;;;;;;;;;;;;;;13.30;42.94;101506.69;3950578;32;15731557;-70
2022/02/10 22:21:49;;;;;;;;;;;;;;;13.51;42.36;101506.22;4429982;32;20316;-70
2022/02/10 22:24:16;;;;;;;;;;;;;;;13.58;42.29;101506.03;4433784;32;19961;-70
2022/02/10 22:26:43;;;;;;;;;;;;;;;13.68;42.04;101521.13;4431842;32;20005;-70
2022/02/10 22:29:23;;;;;;;;;;;;;;;13.85;41.63;101526.38;4430833;32;20140;-70
2022/02/10 22:34:36;;;;;;;;;;;;;;;13.70;42.21;101525.13;3951303;32;15724580;-69
2022/02/10 22:37:04;;;;;;;;;;;;;;;13.73;41.74;101538.41;4427872;32;19996;-69
2022/02/10 22:39:34;;;;;;;;;;;;;;;13.77;41.94;101547.59;4427917;32;19990;-70
2022/02/10 22:41:59;;;;;;;;;;;;;;;13.91;41.66;101555.72;4412153;32;20422;-71
2022/02/10 22:44:25;;;;;;;;;;;;;;;13.91;41.34;101557.75;4428908;32;20455;-69
2022/02/10 22:46:51;;;;;;;;;;;;;;;13.89;41.46;101554.56;4428720;32;20027;-69
2022/02/10 22:49:17;;;;;;;;;;;;;;;13.92;41.55;101550.84;4424879;32;19997;-69
2022/02/10 22:51:43;;;;;;;;;;;;;;;13.93;41.54;101558.91;4425055;32;20509;-69
2022/02/10 22:54:08;;;;;;;;;;;;;;;13.97;41.39;101562.44;4427905;32;20038;-69
2022/02/10 22:56:34;;;;;;;;;;;;;;;13.73;41.84;101563.84;4432423;32;19993;-70
2022/02/10 22:59:02;;;;;;;;;;;;;;;13.84;41.64;101566.44;4432672;32;20012;-70
2022/02/10 23:01:29;;;;;;;;;;;;;;;14.07;41.29;101575.53;4411153;32;19980;-70
2022/02/10 23:03:55;;;;;;;;;;;;;;;14.06;41.35;101573.16;4422584;32;20009;-70
2022/02/10 23:06:22;;;;;;;;;;;;;;;13.91;41.56;101580.41;4429302;32;20014;-70
2022/02/10 23:08:47;;;;;;;;;;;;;;;14.05;41.38;101586.50;4427928;32;20588;-70
2022/02/10 23:11:14;;;;;;;;;;;;;;;14.16;40.98;101589.06;4426510;32;19950;-70
2022/02/10 23:13:44;;;;;;;;;;;;;;;14.20;41.13;101594.66;4426769;32;20388;-70
2022/02/10 23:16:10;;;;;;;;;;;;;;;14.28;41.03;101596.06;4426848;32;20029;-70
2022/02/10 23:18:36;;;;;;;;;;;;;;;14.27;41.18;101598.12;4415583;32;19972;-69
2022/02/10 23:21:07;;;;;;;;;;;;;;;13.97;41.60;101602.03;4425933;32;20417;-70
2022/02/10 23:23:33;;;;;;;;;;;;;;;14.34;40.74;101603.59;4427277;32;20334;-70
2022/02/10 23:25:59;;;;;;;;;;;;;;;14.36;40.81;101603.94;4424640;32;20019;-69
2022/02/10 23:28:28;;;;;;;;;;;;;;;14.20;41.22;101608.81;4428742;32;19993;-69
2022/02/10 23:30:55;;;;;;;;;;;;;;;14.14;41.01;101610.56;4425054;32;19968;-69
2022/02/10 23:33:26;;;;;;;;;;;;;;;14.25;40.99;101611.91;4426517;32;19962;-69
2022/02/10 23:38:34;;;;;;;;;;;;;;;14.22;40.78;101621.25;3951160;32;15724538;-70
2022/02/10 23:43:40;;;;;;;;;;;;;;;14.59;40.44;101634.09;3972309;31;15724502;-70
2022/02/10 23:46:07;;;;;;;;;;;;;;;14.59;40.44;101634.09;4456300;32;19979;-70
2022/02/10 23:48:33;;;;;;;;;;;;;;;13.94;41.32;101624.78;4457662;32;19957;-70
2022/02/10 23:50:59;;;;;;;;;;;;;;;13.81;41.43;101633.16;4455521;32;20004;-70
2022/02/10 23:53:24;;;;;;;;;;;;;;;13.77;41.55;101628.81;4452314;32;20011;-70
2022/02/10 23:55:50;;;;;;;;;;;;;;;13.79;41.50;101635.66;4455760;32;19996;-70
